sensor_id;sensor_type;location;lat;lon;timestamp;pressure;altitude;pressure_sealevel;temperature;humidity
48790;BME280;41718;51.980;5.734;2024-02-26T00:02:29;99901.06;;;4.06;nan
48790;BME280;41718;51.980;5.734;2024-02-26T00:07:34;99905.75;;;4.01;nan
48790;BME280;41718;51.980;5.734;2024-02-26T00:12:36;99903.03;;;4.02;nan
48790;BME280;41718;51.980;5.734;2024-02-26T00:17:41;99896.34;;;3.98;nan
48790;BME280;41718;51.980;5.734;2024-02-26T00:22:43;99901.38;;;4.01;nan
48790;BME280;41718;51.980;5.734;2024-02-26T00:27:46;99907.44;;;4.02;nan
48790;BME280;41718;51.980;5.734;2024-02-26T00:32:48;99903.25;;;3.99;nan
48790;BME280;41718;51.980;5.734;2024-02-26T00:37:50;99907.22;;;4.05;nan
48790;BME280;41718;51.980;5.734;2024-02-26T00:42:52;99906.19;;;4.07;nan
48790;BME280;41718;51.980;5.734;2024-02-26T00:47:54;99895.94;;;4.17;nan
48790;BME280;41718;51.980;5.734;2024-02-26T00:52:57;99894.06;;;4.19;nan
48790;BME280;41718;51.980;5.734;2024-02-26T00:57:59;99896.78;;;4.18;nan
48790;BME280;41718;51.980;5.734;2024-02-26T01:03:02;99894.31;;;4.29;nan
48790;BME280;41718;51.980;5.734;2024-02-26T01:08:05;99888.38;;;4.27;nan
48790;BME280;41718;51.980;5.734;2024-02-26T01:13:07;99886.91;;;4.23;nan
48790;BME280;41718;51.980;5.734;2024-02-26T01:18:09;99876.03;;;4.29;nan
48790;BME280;41718;51.980;5.734;2024-02-26T01:23:12;99872.28;;;4.33;nan
48790;BME280;41718;51.980;5.734;2024-02-26T01:28:15;99866.75;;;4.25;nan
48790;BME280;41718;51.980;5.734;2024-02-26T01:33:17;99876.03;;;4.29;nan
48790;BME280;41718;51.980;5.734;2024-02-26T01:38:19;99875.19;;;4.28;nan
48790;BME280;41718;51.980;5.734;2024-02-26T01:43:22;99886.38;;;4.30;nan
48790;BME280;41718;51.980;5.734;2024-02-26T01:48:24;99891.72;;;4.29;nan
48790;BME280;41718;51.980;5.734;2024-02-26T01:53:27;99903.19;;;4.39;nan
48790;BME280;41718;51.980;5.734;2024-02-26T01:58:30;99910.19;;;4.38;nan
48790;BME280;41718;51.980;5.734;2024-02-26T02:03:33;99925.00;;;4.38;nan
48790;BME280;41718;51.980;5.734;2024-02-26T02:08:35;99929.72;;;4.33;nan
48790;BME280;41718;51.980;5.734;2024-02-26T02:13:38;99927.63;;;4.38;nan
48790;BME280;41718;51.980;5.734;2024-02-26T02:18:40;99932.66;;;4.41;nan
48790;BME280;41718;51.980;5.734;2024-02-26T02:23:42;99941.22;;;4.43;nan
48790;BME280;41718;51.980;5.734;2024-02-26T02:28:48;99943.38;;;4.36;nan
48790;BME280;41718;51.980;5.734;2024-02-26T02:33:51;99953.94;;;4.35;nan
48790;BME280;41718;51.980;5.734;2024-02-26T02:38:53;99958.31;;;4.34;nan
48790;BME280;41718;51.980;5.734;2024-02-26T02:43:55;99951.94;;;4.38;nan
48790;BME280;41718;51.980;5.734;2024-02-26T02:48:57;99953.72;;;4.38;nan
48790;BME280;41718;51.980;5.734;2024-02-26T02:54:00;99961.47;;;4.39;nan
48790;BME280;41718;51.980;5.734;2024-02-26T02:59:02;99962.41;;;4.38;nan
48790;BME280;41718;51.980;5.734;2024-02-26T03:04:04;99955.81;;;4.33;nan
48790;BME280;41718;51.980;5.734;2024-02-26T03:09:07;99961.97;;;4.32;nan
48790;BME280;41718;51.980;5.734;2024-02-26T03:14:09;99966.25;;;4.33;nan
48790;BME280;41718;51.980;5.734;2024-02-26T03:19:15;99973.69;;;4.39;nan
48790;BME280;41718;51.980;5.734;2024-02-26T03:24:18;99966.59;;;4.41;nan
48790;BME280;41718;51.980;5.734;2024-02-26T03:29:20;99970.13;;;4.40;nan
48790;BME280;41718;51.980;5.734;2024-02-26T03:34:22;99968.06;;;4.45;nan
48790;BME280;41718;51.980;5.734;2024-02-26T03:39:25;99977.13;;;4.39;nan
48790;BME280;41718;51.980;5.734;2024-02-26T03:44:27;99987.25;;;4.44;nan
48790;BME280;41718;51.980;5.734;2024-02-26T03:49:29;99989.78;;;4.45;nan
48790;BME280;41718;51.980;5.734;2024-02-26T03:54:31;99986.50;;;4.42;nan
48790;BME280;41718;51.980;5.734;2024-02-26T03:59:33;99986.31;;;4.45;nan
48790;BME280;41718;51.980;5.734;2024-02-26T04:04:35;99984.63;;;4.44;nan
48790;BME280;41718;51.980;5.734;2024-02-26T04:09:37;99990.69;;;4.44;nan
48790;BME280;41718;51.980;5.734;2024-02-26T04:14:39;99994.03;;;4.46;nan
48790;BME280;41718;51.980;5.734;2024-02-26T04:19:41;100001.44;;;4.40;nan
48790;BME280;41718;51.980;5.734;2024-02-26T04:24:43;100007.19;;;4.32;nan
48790;BME280;41718;51.980;5.734;2024-02-26T04:29:45;100006.84;;;4.24;nan
48790;BME280;41718;51.980;5.734;2024-02-26T04:34:47;100003.59;;;4.21;nan
48790;BME280;41718;51.980;5.734;2024-02-26T04:39:50;100016.16;;;4.28;nan
48790;BME280;41718;51.980;5.734;2024-02-26T04:44:52;100025.13;;;4.24;nan
48790;BME280;41718;51.980;5.734;2024-02-26T04:49:54;100026.16;;;4.22;nan
48790;BME280;41718;51.980;5.734;2024-02-26T04:54:56;100028.75;;;4.22;nan
48790;BME280;41718;51.980;5.734;2024-02-26T04:59:58;100027.91;;;4.21;nan
48790;BME280;41718;51.980;5.734;2024-02-26T05:05:00;100034.81;;;4.22;nan
48790;BME280;41718;51.980;5.734;2024-02-26T05:10:03;100041.69;;;4.23;nan
48790;BME280;41718;51.980;5.734;2024-02-26T05:15:05;100038.78;;;4.28;nan
48790;BME280;41718;51.980;5.734;2024-02-26T05:20:08;100049.63;;;4.22;nan
48790;BME280;41718;51.980;5.734;2024-02-26T05:25:10;100040.16;;;4.21;nan
48790;BME280;41718;51.980;5.734;2024-02-26T05:30:12;100035.97;;;4.18;nan
48790;BME280;41718;51.980;5.734;2024-02-26T05:35:15;100047.41;;;4.15;nan
48790;BME280;41718;51.980;5.734;2024-02-26T05:40:17;100054.41;;;4.15;nan
48790;BME280;41718;51.980;5.734;2024-02-26T05:45:19;100063.38;;;4.11;nan
48790;BME280;41718;51.980;5.734;2024-02-26T05:50:21;100066.53;;;4.16;nan
48790;BME280;41718;51.980;5.734;2024-02-26T05:55:23;100058.06;;;4.12;nan
48790;BME280;41718;51.980;5.734;2024-02-26T06:00:25;100069.44;;;4.11;nan
48790;BME280;41718;51.980;5.734;2024-02-26T06:05:27;100066.09;;;4.09;nan
48790;BME280;41718;51.980;5.734;2024-02-26T06:10:29;100069.72;;;4.07;nan
48790;BME280;41718;51.980;5.734;2024-02-26T06:15:31;100081.25;;;4.17;nan
48790;BME280;41718;51.980;5.734;2024-02-26T06:20:34;100079.38;;;4.19;nan
48790;BME280;41718;51.980;5.734;2024-02-26T06:25:36;100089.00;;;4.19;nan
48790;BME280;41718;51.980;5.734;2024-02-26T06:30:38;100098.31;;;4.23;nan
48790;BME280;41718;51.980;5.734;2024-02-26T06:35:40;100096.03;;;4.31;nan
48790;BME280;41718;51.980;5.734;2024-02-26T06:40:42;100109.91;;;4.31;nan
48790;BME280;41718;51.980;5.734;2024-02-26T06:45:44;100115.13;;;4.31;nan
48790;BME280;41718;51.980;5.734;2024-02-26T06:50:46;100112.63;;;4.30;nan
48790;BME280;41718;51.980;5.734;2024-02-26T06:55:48;100122.66;;;4.36;nan
48790;BME280;41718;51.980;5.734;2024-02-26T07:00:52;100128.91;;;4.33;nan
48790;BME280;41718;51.980;5.734;2024-02-26T07:05:54;100140.59;;;4.28;nan
48790;BME280;41718;51.980;5.734;2024-02-26T07:10:56;100139.75;;;4.27;nan
48790;BME280;41718;51.980;5.734;2024-02-26T07:15:58;100143.31;;;4.26;nan
48790;BME280;41718;51.980;5.734;2024-02-26T07:21:02;100158.97;;;4.26;nan
48790;BME280;41718;51.980;5.734;2024-02-26T07:26:05;100159.88;;;4.25;nan
48790;BME280;41718;51.980;5.734;2024-02-26T07:31:07;100166.16;;;4.23;nan
48790;BME280;41718;51.980;5.734;2024-02-26T07:36:09;100173.88;;;4.24;nan
48790;BME280;41718;51.980;5.734;2024-02-26T07:41:11;100180.97;;;4.22;nan
48790;BME280;41718;51.980;5.734;2024-02-26T07:46:14;100180.88;;;4.24;nan
48790;BME280;41718;51.980;5.734;2024-02-26T07:51:16;100180.69;;;4.27;nan
48790;BME280;41718;51.980;5.734;2024-02-26T07:56:19;100189.28;;;4.29;nan
48790;BME280;41718;51.980;5.734;2024-02-26T08:01:21;100196.88;;;4.32;nan
48790;BME280;41718;51.980;5.734;2024-02-26T08:06:23;100199.41;;;4.33;nan
48790;BME280;41718;51.980;5.734;2024-02-26T08:11:26;100205.47;;;4.34;nan
48790;BME280;41718;51.980;5.734;2024-02-26T08:16:30;100206.41;;;4.33;nan
48790;BME280;41718;51.980;5.734;2024-02-26T08:21:35;100225.31;;;4.36;nan
48790;BME280;41718;51.980;5.734;2024-02-26T08:26:38;100219.25;;;4.36;nan
48790;BME280;41718;51.980;5.734;2024-02-26T08:31:42;100221.97;;;4.34;nan
48790;BME280;41718;51.980;5.734;2024-02-26T08:36:47;100222.81;;;4.35;nan
48790;BME280;41718;51.980;5.734;2024-02-26T08:41:54;100229.81;;;4.34;nan
48790;BME280;41718;51.980;5.734;2024-02-26T08:46:56;100230.66;;;4.35;nan
48790;BME280;41718;51.980;5.734;2024-02-26T08:51:58;100246.84;;;4.40;nan
48790;BME280;41718;51.980;5.734;2024-02-26T08:57:00;100249.28;;;4.43;nan
48790;BME280;41718;51.980;5.734;2024-02-26T09:02:02;100249.91;;;4.46;nan
48790;BME280;41718;51.980;5.734;2024-02-26T09:07:04;100257.66;;;4.48;nan
48790;BME280;41718;51.980;5.734;2024-02-26T09:12:08;100258.41;;;4.50;nan
48790;BME280;41718;51.980;5.734;2024-02-26T09:17:10;100261.97;;;4.49;nan
48790;BME280;41718;51.980;5.734;2024-02-26T09:22:12;100280.88;;;4.52;nan
48790;BME280;41718;51.980;5.734;2024-02-26T09:27:16;100283.47;;;4.52;nan
48790;BME280;41718;51.980;5.734;2024-02-26T09:32:19;100292.06;;;4.54;nan
48790;BME280;41718;51.980;5.734;2024-02-26T09:37:21;100296.44;;;4.54;nan
48790;BME280;41718;51.980;5.734;2024-02-26T09:42:25;100312.09;;;4.54;nan
48790;BME280;41718;51.980;5.734;2024-02-26T09:47:31;100312.84;;;4.56;nan
48790;BME280;41718;51.980;5.734;2024-02-26T09:52:33;100315.84;;;4.50;nan
48790;BME280;41718;51.980;5.734;2024-02-26T09:57:45;100322.66;;;4.52;nan
48790;BME280;41718;51.980;5.734;2024-02-26T10:02:48;100322.00;;;4.49;nan
48790;BME280;41718;51.980;5.734;2024-02-26T10:07:51;100338.31;;;4.52;nan
48790;BME280;41718;51.980;5.734;2024-02-26T10:12:54;100335.06;;;4.49;nan
48790;BME280;41718;51.980;5.734;2024-02-26T10:17:56;100346.38;;;4.49;nan
48790;BME280;41718;51.980;5.734;2024-02-26T10:23:02;100361.09;;;4.50;nan
48790;BME280;41718;51.980;5.734;2024-02-26T10:28:05;100366.31;;;4.50;nan
48790;BME280;41718;51.980;5.734;2024-02-26T10:33:07;100378.34;;;4.53;nan
48790;BME280;41718;51.980;5.734;2024-02-26T10:38:10;100382.81;;;4.51;nan
48790;BME280;41718;51.980;5.734;2024-02-26T10:43:12;100389.25;;;4.59;nan
48790;BME280;41718;51.980;5.734;2024-02-26T10:48:16;100403.97;;;4.60;nan
48790;BME280;41718;51.980;5.734;2024-02-26T10:53:23;100415.28;;;4.61;nan
48790;BME280;41718;51.980;5.734;2024-02-26T10:58:27;100424.13;;;4.58;nan
48790;BME280;41718;51.980;5.734;2024-02-26T11:03:30;100422.09;;;4.63;nan
48790;BME280;41718;51.980;5.734;2024-02-26T11:08:34;100433.94;;;4.69;nan
48790;BME280;41718;51.980;5.734;2024-02-26T11:13:37;100451.47;;;4.67;nan
48790;BME280;41718;51.980;5.734;2024-02-26T11:18:47;100450.56;;;4.68;nan
48790;BME280;41718;51.980;5.734;2024-02-26T11:23:50;100461.00;;;4.68;nan
48790;BME280;41718;51.980;5.734;2024-02-26T11:28:53;100463.41;;;4.71;nan
48790;BME280;41718;51.980;5.734;2024-02-26T11:33:56;100470.03;;;4.76;nan
48790;BME280;41718;51.980;5.734;2024-02-26T11:38:59;100476.22;;;4.75;nan
48790;BME280;41718;51.980;5.734;2024-02-26T11:44:02;100476.97;;;4.77;nan
48790;BME280;41718;51.980;5.734;2024-02-26T11:54:53;100478.81;;;4.75;nan
48790;BME280;41718;51.980;5.734;2024-02-26T12:05:21;100494.22;;;4.80;nan
48790;BME280;41718;51.980;5.734;2024-02-26T12:10:32;100494.41;;;4.77;nan
48790;BME280;41718;51.980;5.734;2024-02-26T12:15:55;100492.00;;;4.74;nan
48790;BME280;41718;51.980;5.734;2024-02-26T12:21:03;100504.69;;;4.80;nan
48790;BME280;41718;51.980;5.734;2024-02-26T12:26:06;100500.97;;;4.84;nan
48790;BME280;41718;51.980;5.734;2024-02-26T12:31:10;100502.63;;;4.85;nan
48790;BME280;41718;51.980;5.734;2024-02-26T12:36:13;100516.44;;;4.87;nan
48790;BME280;41718;51.980;5.734;2024-02-26T12:41:15;100525.50;;;4.95;nan
48790;BME280;41718;51.980;5.734;2024-02-26T12:46:17;100535.94;;;4.95;nan
48790;BME280;41718;51.980;5.734;2024-02-26T12:51:19;100541.94;;;4.97;nan
48790;BME280;41718;51.980;5.734;2024-02-26T12:56:23;100547.75;;;5.03;nan
48790;BME280;41718;51.980;5.734;2024-02-26T13:01:27;100544.91;;;5.06;nan
48790;BME280;41718;51.980;5.734;2024-02-26T13:06:30;100555.38;;;5.06;nan
48790;BME280;41718;51.980;5.734;2024-02-26T13:11:33;100562.09;;;5.10;nan
48790;BME280;41718;51.980;5.734;2024-02-26T13:16:35;100570.22;;;5.05;nan
48790;BME280;41718;51.980;5.734;2024-02-26T13:21:37;100573.41;;;5.10;nan
48790;BME280;41718;51.980;5.734;2024-02-26T13:26:39;100581.34;;;5.09;nan
48790;BME280;41718;51.980;5.734;2024-02-26T13:31:41;100581.06;;;5.13;nan
48790;BME280;41718;51.980;5.734;2024-02-26T13:36:45;100595.06;;;5.12;nan
48790;BME280;41718;51.980;5.734;2024-02-26T13:41:47;100595.06;;;5.12;nan
48790;BME280;41718;51.980;5.734;2024-02-26T13:46:49;100601.97;;;5.13;nan
48790;BME280;41718;51.980;5.734;2024-02-26T13:51:51;100607.69;;;5.20;nan
48790;BME280;41718;51.980;5.734;2024-02-26T13:56:53;100617.31;;;5.19;nan
48790;BME280;41718;51.980;5.734;2024-02-26T14:01:56;100627.31;;;5.27;nan
48790;BME280;41718;51.980;5.734;2024-02-26T14:06:58;100635.06;;;5.28;nan
48790;BME280;41718;51.980;5.734;2024-02-26T14:12:00;100643.84;;;5.27;nan
48790;BME280;41718;51.980;5.734;2024-02-26T14:17:03;100647.84;;;5.33;nan
48790;BME280;41718;51.980;5.734;2024-02-26T14:22:05;100657.19;;;5.37;nan
48790;BME280;41718;51.980;5.734;2024-02-26T14:27:10;100668.78;;;5.33;nan
48790;BME280;41718;51.980;5.734;2024-02-26T14:32:16;100667.75;;;5.35;nan
48790;BME280;41718;51.980;5.734;2024-02-26T14:37:19;100668.56;;;5.36;nan
48790;BME280;41718;51.980;5.734;2024-02-26T14:42:21;100682.06;;;5.44;nan
48790;BME280;41718;51.980;5.734;2024-02-26T14:47:26;100690.47;;;5.49;nan
48790;BME280;41718;51.980;5.734;2024-02-26T14:52:28;100694.78;;;5.50;nan
48790;BME280;41718;51.980;5.734;2024-02-26T14:57:30;100706.06;;;5.50;nan
48790;BME280;41718;51.980;5.734;2024-02-26T15:02:32;100707.94;;;5.48;nan
48790;BME280;41718;51.980;5.734;2024-02-26T15:07:34;100714.59;;;5.54;nan
48790;BME280;41718;51.980;5.734;2024-02-26T15:12:38;100727.69;;;5.54;nan
48790;BME280;41718;51.980;5.734;2024-02-26T15:17:40;100730.47;;;5.51;nan
48790;BME280;41718;51.980;5.734;2024-02-26T15:22:42;100735.69;;;5.51;nan
48790;BME280;41718;51.980;5.734;2024-02-26T15:27:44;100757.72;;;5.47;nan
48790;BME280;41718;51.980;5.734;2024-02-26T15:32:46;100754.00;;;5.51;nan
48790;BME280;41718;51.980;5.734;2024-02-26T15:37:49;100762.31;;;5.43;nan
48790;BME280;41718;51.980;5.734;2024-02-26T15:42:51;100765.53;;;5.33;nan
48790;BME280;41718;51.980;5.734;2024-02-26T15:47:53;100785.03;;;5.27;nan
48790;BME280;41718;51.980;5.734;2024-02-26T15:52:55;100804.09;;;5.29;nan
48790;BME280;41718;51.980;5.734;2024-02-26T15:57:57;100814.47;;;5.31;nan
48790;BME280;41718;51.980;5.734;2024-02-26T16:02:59;100816.56;;;5.24;nan
48790;BME280;41718;51.980;5.734;2024-02-26T16:08:30;100819.78;;;5.29;nan
48790;BME280;41718;51.980;5.734;2024-02-26T16:13:32;100824.44;;;5.24;nan
48790;BME280;41718;51.980;5.734;2024-02-26T16:18:35;100833.47;;;5.19;nan
48790;BME280;41718;51.980;5.734;2024-02-26T16:23:37;100850.66;;;5.23;nan
48790;BME280;41718;51.980;5.734;2024-02-26T16:28:42;100845.69;;;5.18;nan
48790;BME280;41718;51.980;5.734;2024-02-26T16:33:44;100844.03;;;5.17;nan
48790;BME280;41718;51.980;5.734;2024-02-26T16:38:46;100855.72;;;5.10;nan
48790;BME280;41718;51.980;5.734;2024-02-26T16:43:48;100869.66;;;5.11;nan
48790;BME280;41718;51.980;5.734;2024-02-26T16:48:50;100878.50;;;5.08;nan
48790;BME280;41718;51.980;5.734;2024-02-26T16:53:54;100876.22;;;5.02;nan
48790;BME280;41718;51.980;5.734;2024-02-26T16:58:56;100887.00;;;4.96;nan
48790;BME280;41718;51.980;5.734;2024-02-26T17:03:58;100881.16;;;4.91;nan
48790;BME280;41718;51.980;5.734;2024-02-26T17:09:00;100884.31;;;4.82;nan
48790;BME280;41718;51.980;5.734;2024-02-26T17:14:06;100894.00;;;4.80;nan
48790;BME280;41718;51.980;5.734;2024-02-26T17:19:08;100909.72;;;4.78;nan
48790;BME280;41718;51.980;5.734;2024-02-26T17:24:10;100933.50;;;4.74;nan
48790;BME280;41718;51.980;5.734;2024-02-26T17:29:12;100948.56;;;4.69;nan
48790;BME280;41718;51.980;5.734;2024-02-26T17:34:14;100947.97;;;4.64;nan
48790;BME280;41718;51.980;5.734;2024-02-26T17:39:17;100961.94;;;4.63;nan
48790;BME280;41718;51.980;5.734;2024-02-26T17:44:20;100973.47;;;4.59;nan
48790;BME280;41718;51.980;5.734;2024-02-26T17:49:25;100985.00;;;4.55;nan
48790;BME280;41718;51.980;5.734;2024-02-26T17:54:29;100998.47;;;4.47;nan
48790;BME280;41718;51.980;5.734;2024-02-26T17:59:31;101010.81;;;4.44;nan
48790;BME280;41718;51.980;5.734;2024-02-26T18:04:33;101027.50;;;4.41;nan
48790;BME280;41718;51.980;5.734;2024-02-26T18:09:37;101036.63;;;4.33;nan
48790;BME280;41718;51.980;5.734;2024-02-26T18:14:40;101046.34;;;4.29;nan
48790;BME280;41718;51.980;5.734;2024-02-26T18:19:42;101072.00;;;4.21;nan
48790;BME280;41718;51.980;5.734;2024-02-26T18:24:44;101071.94;;;4.23;nan
48790;BME280;41718;51.980;5.734;2024-02-26T18:29:46;101076.31;;;4.22;nan
48790;BME280;41718;51.980;5.734;2024-02-26T18:34:48;101084.44;;;4.16;nan
48790;BME280;41718;51.980;5.734;2024-02-26T18:39:52;101101.94;;;4.14;nan
48790;BME280;41718;51.980;5.734;2024-02-26T18:44:56;101110.53;;;4.16;nan
48790;BME280;41718;51.980;5.734;2024-02-26T18:50:00;101123.03;;;4.09;nan
48790;BME280;41718;51.980;5.734;2024-02-26T18:55:02;101129.38;;;4.04;nan
48790;BME280;41718;51.980;5.734;2024-02-26T19:00:08;101149.25;;;4.06;nan
48790;BME280;41718;51.980;5.734;2024-02-26T19:05:11;101152.78;;;4.05;nan
48790;BME280;41718;51.980;5.734;2024-02-26T19:10:15;101164.00;;;4.07;nan
48790;BME280;41718;51.980;5.734;2024-02-26T19:15:17;101174.53;;;4.06;nan
48790;BME280;41718;51.980;5.734;2024-02-26T19:20:22;101172.03;;;4.03;nan
48790;BME280;41718;51.980;5.734;2024-02-26T19:25:24;101187.59;;;4.06;nan
48790;BME280;41718;51.980;5.734;2024-02-26T19:30:26;101196.59;;;3.99;nan
48790;BME280;41718;51.980;5.734;2024-02-26T19:35:30;101197.56;;;3.96;nan
48790;BME280;41718;51.980;5.734;2024-02-26T19:40:32;101203.72;;;3.95;nan
48790;BME280;41718;51.980;5.734;2024-02-26T19:45:35;101211.66;;;3.92;nan
48790;BME280;41718;51.980;5.734;2024-02-26T19:50:37;101211.81;;;3.89;nan
48790;BME280;41718;51.980;5.734;2024-02-26T19:55:39;101227.41;;;3.91;nan
48790;BME280;41718;51.980;5.734;2024-02-26T20:00:42;101217.94;;;3.88;nan
48790;BME280;41718;51.980;5.734;2024-02-26T20:05:47;101230.22;;;3.86;nan
48790;BME280;41718;51.980;5.734;2024-02-26T20:10:50;101241.50;;;3.87;nan
48790;BME280;41718;51.980;5.734;2024-02-26T20:15:54;101244.22;;;3.84;nan
48790;BME280;41718;51.980;5.734;2024-02-26T20:20:56;101252.13;;;3.82;nan
48790;BME280;41718;51.980;5.734;2024-02-26T20:26:04;101263.34;;;3.84;nan
48790;BME280;41718;51.980;5.734;2024-02-26T20:31:11;101257.50;;;3.79;nan
48790;BME280;41718;51.980;5.734;2024-02-26T20:36:17;101260.81;;;3.83;nan
48790;BME280;41718;51.980;5.734;2024-02-26T20:41:20;101278.38;;;3.79;nan
48790;BME280;41718;51.980;5.734;2024-02-26T20:46:24;101279.28;;;3.78;nan
48790;BME280;41718;51.980;5.734;2024-02-26T20:51:27;101294.66;;;3.84;nan
48790;BME280;41718;51.980;5.734;2024-02-26T20:56:31;101296.38;;;3.85;nan
48790;BME280;41718;51.980;5.734;2024-02-26T21:01:34;101299.75;;;3.87;nan
48790;BME280;41718;51.980;5.734;2024-02-26T21:06:37;101309.34;;;3.87;nan
48790;BME280;41718;51.980;5.734;2024-02-26T21:11:42;101309.16;;;3.91;nan
48790;BME280;41718;51.980;5.734;2024-02-26T21:16:47;101322.31;;;3.88;nan
48790;BME280;41718;51.980;5.734;2024-02-26T21:21:55;101329.09;;;3.92;nan
48790;BME280;41718;51.980;5.734;2024-02-26T21:26:58;101334.53;;;3.88;nan
48790;BME280;41718;51.980;5.734;2024-02-26T21:32:01;101343.34;;;3.85;nan
48790;BME280;41718;51.980;5.734;2024-02-26T21:37:07;101356.38;;;3.85;nan
48790;BME280;41718;51.980;5.734;2024-02-26T21:42:14;101354.56;;;3.87;nan
48790;BME280;41718;51.980;5.734;2024-02-26T21:47:19;101365.78;;;3.89;nan
48790;BME280;41718;51.980;5.734;2024-02-26T21:52:22;101371.97;;;3.87;nan
48790;BME280;41718;51.980;5.734;2024-02-26T21:57:25;101378.91;;;3.88;nan
48790;BME280;41718;51.980;5.734;2024-02-26T22:02:29;101385.91;;;3.86;nan
48790;BME280;41718;51.980;5.734;2024-02-26T22:07:39;101394.66;;;3.85;nan
48790;BME280;41718;51.980;5.734;2024-02-26T22:12:45;101397.19;;;3.86;nan
48790;BME280;41718;51.980;5.734;2024-02-26T22:17:53;101396.41;;;3.84;nan
48790;BME280;41718;51.980;5.734;2024-02-26T22:23:07;101409.66;;;3.80;nan
48790;BME280;41718;51.980;5.734;2024-02-26T22:28:10;101402.94;;;3.74;nan
48790;BME280;41718;51.980;5.734;2024-02-26T22:33:12;101399.53;;;3.72;nan
48790;BME280;41718;51.980;5.734;2024-02-26T22:38:16;101414.53;;;3.67;nan
48790;BME280;41718;51.980;5.734;2024-02-26T22:43:18;101427.69;;;3.64;nan
48790;BME280;41718;51.980;5.734;2024-02-26T22:48:22;101423.34;;;3.65;nan
48790;BME280;41718;51.980;5.734;2024-02-26T22:53:25;101425.25;;;3.60;nan
48790;BME280;41718;51.980;5.734;2024-02-26T22:58:29;101429.63;;;3.59;nan
48790;BME280;41718;51.980;5.734;2024-02-26T23:03:32;101434.72;;;3.62;nan
48790;BME280;41718;51.980;5.734;2024-02-26T23:08:37;101444.44;;;3.59;nan
48790;BME280;41718;51.980;5.734;2024-02-26T23:13:40;101447.69;;;3.64;nan
48790;BME280;41718;51.980;5.734;2024-02-26T23:18:45;101456.53;;;3.61;nan
48790;BME280;41718;51.980;5.734;2024-02-26T23:23:48;101465.31;;;3.59;nan
48790;BME280;41718;51.980;5.734;2024-02-26T23:28:51;101469.66;;;3.58;nan
48790;BME280;41718;51.980;5.734;2024-02-26T23:33:54;101480.16;;;3.57;nan
48790;BME280;41718;51.980;5.734;2024-02-26T23:39:01;101483.06;;;3.49;nan
48790;BME280;41718;51.980;5.734;2024-02-26T23:44:04;101481.66;;;3.41;nan
48790;BME280;41718;51.980;5.734;2024-02-26T23:49:06;101483.53;;;3.37;nan
48790;BME280;41718;51.980;5.734;2024-02-26T23:54:11;101490.91;;;3.26;nan
48790;BME280;41718;51.980;5.734;2024-02-26T23:59:14;101492.09;;;3.17;nan
